sensor_id;sensor_type;location;lat;lon;timestamp;noise_LAeq;noise_LA_min;noise_LA_max;noise_LA01;noise_LA95
77134;Laerm;25175;50.140;18.990;2024-03-17T00:01:25;39.75;34.74;51.00;;
77134;Laerm;25175;50.140;18.990;2024-03-17T00:09:18;38.80;33.54;51.98;;
77134;Laerm;25175;50.140;18.990;2024-03-17T00:12:52;36.29;33.45;44.63;;
77134;Laerm;25175;50.140;18.990;2024-03-17T00:20:22;38.09;34.01;50.40;;
77134;Laerm;25175;50.140;18.990;2024-03-17T00:28:32;37.89;33.47;48.74;;
77134;Laerm;25175;50.140;18.990;2024-03-17T00:32:58;37.08;33.41;46.66;;
77134;Laerm;25175;50.140;18.990;2024-03-17T00:40:22;36.97;33.59;42.93;;
77134;Laerm;25175;50.140;18.990;2024-03-17T00:44:24;40.26;33.30;58.17;;
77134;Laerm;25175;50.140;18.990;2024-03-17T00:47:42;41.29;33.29;60.96;;
77134;Laerm;25175;50.140;18.990;2024-03-17T00:50:58;38.31;33.63;50.23;;
77134;Laerm;25175;50.140;18.990;2024-03-17T00:54:26;38.21;34.14;44.16;;
77134;Laerm;25175;50.140;18.990;2024-03-17T00:58:20;38.13;33.75;49.38;;
77134;Laerm;25175;50.140;18.990;2024-03-17T01:06:55;36.95;33.21;43.61;;
77134;Laerm;25175;50.140;18.990;2024-03-17T01:14:57;36.11;33.05;43.86;;
77134;Laerm;25175;50.140;18.990;2024-03-17T01:18:52;39.73;33.45;54.66;;
77134;Laerm;25175;50.140;18.990;2024-03-17T01:27:20;38.67;33.45;54.24;;
77134;Laerm;25175;50.140;18.990;2024-03-17T01:43:14;35.77;32.92;51.00;;
77134;Laerm;25175;50.140;18.990;2024-03-17T01:46:56;35.72;32.96;51.10;;
77134;Laerm;25175;50.140;18.990;2024-03-17T01:55:11;38.91;32.60;55.73;;
77134;Laerm;25175;50.140;18.990;2024-03-17T01:59:08;34.81;32.65;40.50;;
77134;Laerm;25175;50.140;18.990;2024-03-17T02:02:39;34.84;32.63;41.06;;
77134;Laerm;25175;50.140;18.990;2024-03-17T02:06:39;36.46;32.95;47.60;;
77134;Laerm;25175;50.140;18.990;2024-03-17T02:10:52;35.95;32.67;50.12;;
77134;Laerm;25175;50.140;18.990;2024-03-17T02:13:45;36.23;32.48;49.61;;
77134;Laerm;25175;50.140;18.990;2024-03-17T02:17:14;34.24;32.48;40.48;;
77134;Laerm;25175;50.140;18.990;2024-03-17T02:28:55;34.00;32.38;39.62;;
77134;Laerm;25175;50.140;18.990;2024-03-17T02:33:17;34.01;32.41;40.04;;
77134;Laerm;25175;50.140;18.990;2024-03-17T02:36:26;33.95;31.99;42.19;;
77134;Laerm;25175;50.140;18.990;2024-03-17T02:39:44;36.09;32.38;49.88;;
77134;Laerm;25175;50.140;18.990;2024-03-17T02:43:03;34.10;32.48;46.84;;
77134;Laerm;25175;50.140;18.990;2024-03-17T02:46:12;34.44;32.70;39.54;;
77134;Laerm;25175;50.140;18.990;2024-03-17T02:49:24;34.43;32.44;42.38;;
77134;Laerm;25175;50.140;18.990;2024-03-17T02:52:43;34.22;32.37;51.91;;
77134;Laerm;25175;50.140;18.990;2024-03-17T02:59:42;34.61;32.71;54.60;;
77134;Laerm;25175;50.140;18.990;2024-03-17T03:03:07;39.54;32.44;58.56;;
77134;Laerm;25175;50.140;18.990;2024-03-17T03:06:16;34.69;32.48;50.51;;
77134;Laerm;25175;50.140;18.990;2024-03-17T03:09:35;36.09;32.90;47.26;;
77134;Laerm;25175;50.140;18.990;2024-03-17T03:16:25;34.82;33.02;49.71;;
77134;Laerm;25175;50.140;18.990;2024-03-17T03:28:26;34.85;32.89;51.10;;
77134;Laerm;25175;50.140;18.990;2024-03-17T03:32:13;35.30;32.95;57.47;;
77134;Laerm;25175;50.140;18.990;2024-03-17T03:36:07;39.62;32.61;60.07;;
77134;Laerm;25175;50.140;18.990;2024-03-17T03:39:38;35.34;33.09;59.46;;
77134;Laerm;25175;50.140;18.990;2024-03-17T03:42:49;34.88;32.68;58.21;;
77134;Laerm;25175;50.140;18.990;2024-03-17T03:46:22;35.09;32.80;63.28;;
77134;Laerm;25175;50.140;18.990;2024-03-17T03:54:26;37.75;32.53;63.02;;
77134;Laerm;25175;50.140;18.990;2024-03-17T03:57:50;34.66;32.71;60.81;;
77134;Laerm;25175;50.140;18.990;2024-03-17T04:01:34;35.13;32.87;53.22;;
77134;Laerm;25175;50.140;18.990;2024-03-17T04:09:35;37.72;32.63;63.45;;
77134;Laerm;25175;50.140;18.990;2024-03-17T04:12:48;38.40;32.86;53.19;;
77134;Laerm;25175;50.140;18.990;2024-03-17T04:16:42;35.26;32.94;45.68;;
77134;Laerm;25175;50.140;18.990;2024-03-17T04:20:32;39.91;32.89;61.57;;
77134;Laerm;25175;50.140;18.990;2024-03-17T04:23:35;39.85;32.98;56.82;;
77134;Laerm;25175;50.140;18.990;2024-03-17T04:26:59;39.03;32.92;63.01;;
77134;Laerm;25175;50.140;18.990;2024-03-17T04:30:11;40.35;32.59;56.74;;
77134;Laerm;25175;50.140;18.990;2024-03-17T04:33:48;41.04;32.83;58.31;;
77134;Laerm;25175;50.140;18.990;2024-03-17T04:37:22;40.59;32.81;57.41;;
77134;Laerm;25175;50.140;18.990;2024-03-17T04:41:32;37.11;32.82;63.21;;
77134;Laerm;25175;50.140;18.990;2024-03-17T04:44:59;41.31;33.15;60.37;;
77134;Laerm;25175;50.140;18.990;2024-03-17T04:48:27;40.62;32.95;56.59;;
77134;Laerm;25175;50.140;18.990;2024-03-17T04:56:10;38.67;33.51;53.13;;
77134;Laerm;25175;50.140;18.990;2024-03-17T04:59:33;44.18;33.52;60.65;;
77134;Laerm;25175;50.140;18.990;2024-03-17T05:06:37;42.23;33.38;56.00;;
77134;Laerm;25175;50.140;18.990;2024-03-17T05:10:00;38.85;33.07;53.17;;
77134;Laerm;25175;50.140;18.990;2024-03-17T05:13:36;38.39;33.14;58.09;;
77134;Laerm;25175;50.140;18.990;2024-03-17T05:16:47;37.99;32.89;58.67;;
77134;Laerm;25175;50.140;18.990;2024-03-17T05:19:56;41.58;33.15;56.86;;
77134;Laerm;25175;50.140;18.990;2024-03-17T05:23:31;46.89;33.42;69.69;;
77134;Laerm;25175;50.140;18.990;2024-03-17T05:26:42;38.50;34.32;51.20;;
77134;Laerm;25175;50.140;18.990;2024-03-17T05:30:13;42.17;33.65;56.19;;
77134;Laerm;25175;50.140;18.990;2024-03-17T05:37:44;42.63;32.87;61.09;;
77134;Laerm;25175;50.140;18.990;2024-03-17T05:41:29;39.96;33.41;53.89;;
77134;Laerm;25175;50.140;18.990;2024-03-17T05:44:44;36.76;33.06;53.20;;
77134;Laerm;25175;50.140;18.990;2024-03-17T05:52:31;37.10;33.03;48.09;;
77134;Laerm;25175;50.140;18.990;2024-03-17T05:55:47;38.03;33.62;49.25;;
77134;Laerm;25175;50.140;18.990;2024-03-17T05:59:44;40.45;33.16;58.94;;
77134;Laerm;25175;50.140;18.990;2024-03-17T06:03:00;40.78;33.59;53.76;;
77134;Laerm;25175;50.140;18.990;2024-03-17T06:06:16;39.83;33.48;54.13;;
77134;Laerm;25175;50.140;18.990;2024-03-17T06:13:18;42.82;33.67;57.40;;
77134;Laerm;25175;50.140;18.990;2024-03-17T06:16:52;42.71;33.61;55.70;;
77134;Laerm;25175;50.140;18.990;2024-03-17T06:21:08;43.02;33.75;56.28;;
77134;Laerm;25175;50.140;18.990;2024-03-17T06:24:22;39.42;33.75;55.58;;
77134;Laerm;25175;50.140;18.990;2024-03-17T06:28:31;39.47;33.32;67.26;;
77134;Laerm;25175;50.140;18.990;2024-03-17T06:32:10;42.81;32.91;58.51;;
77134;Laerm;25175;50.140;18.990;2024-03-17T06:35:26;36.28;33.45;46.50;;
77134;Laerm;25175;50.140;18.990;2024-03-17T06:38:52;40.60;33.15;57.66;;
77134;Laerm;25175;50.140;18.990;2024-03-17T06:42:29;39.06;33.25;53.48;;
77134;Laerm;25175;50.140;18.990;2024-03-17T06:45:41;44.34;33.36;62.24;;
77134;Laerm;25175;50.140;18.990;2024-03-17T06:49:14;40.95;33.35;59.33;;
77134;Laerm;25175;50.140;18.990;2024-03-17T06:53:24;41.64;33.33;58.08;;
77134;Laerm;25175;50.140;18.990;2024-03-17T06:56:34;42.66;33.37;55.41;;
77134;Laerm;25175;50.140;18.990;2024-03-17T07:00:36;41.02;33.21;57.48;;
77134;Laerm;25175;50.140;18.990;2024-03-17T07:03:47;41.50;33.79;55.56;;
77134;Laerm;25175;50.140;18.990;2024-03-17T07:11:42;38.72;34.03;51.45;;
77134;Laerm;25175;50.140;18.990;2024-03-17T07:18:48;48.75;35.50;69.21;;
77134;Laerm;25175;50.140;18.990;2024-03-17T07:26:09;40.94;33.59;56.42;;
77134;Laerm;25175;50.140;18.990;2024-03-17T07:30:22;39.38;33.59;54.84;;
77134;Laerm;25175;50.140;18.990;2024-03-17T07:33:58;40.87;33.77;57.67;;
77134;Laerm;25175;50.140;18.990;2024-03-17T07:41:37;40.18;34.44;58.72;;
77134;Laerm;25175;50.140;18.990;2024-03-17T07:44:51;40.62;33.64;54.07;;
77134;Laerm;25175;50.140;18.990;2024-03-17T07:48:59;41.80;33.63;61.06;;
77134;Laerm;25175;50.140;18.990;2024-03-17T07:52:06;40.70;33.79;52.26;;
77134;Laerm;25175;50.140;18.990;2024-03-17T07:55:28;41.57;33.41;54.51;;
77134;Laerm;25175;50.140;18.990;2024-03-17T07:58:50;43.20;34.30;56.37;;
77134;Laerm;25175;50.140;18.990;2024-03-17T08:02:04;44.92;33.96;56.31;;
77134;Laerm;25175;50.140;18.990;2024-03-17T08:05:33;44.62;33.53;63.86;;
77134;Laerm;25175;50.140;18.990;2024-03-17T08:08:51;42.28;33.45;62.47;;
77134;Laerm;25175;50.140;18.990;2024-03-17T08:12:07;45.31;35.21;61.87;;
77134;Laerm;25175;50.140;18.990;2024-03-17T08:15:37;42.82;35.65;56.69;;
77134;Laerm;25175;50.140;18.990;2024-03-17T08:23:30;45.31;34.34;61.84;;
77134;Laerm;25175;50.140;18.990;2024-03-17T08:27:05;43.46;35.33;59.21;;
77134;Laerm;25175;50.140;18.990;2024-03-17T08:31:04;45.15;35.37;58.52;;
77134;Laerm;25175;50.140;18.990;2024-03-17T08:34:22;48.79;34.22;65.07;;
77134;Laerm;25175;50.140;18.990;2024-03-17T08:37:30;53.65;35.13;82.44;;
77134;Laerm;25175;50.140;18.990;2024-03-17T08:42:10;45.83;34.83;61.69;;
77134;Laerm;25175;50.140;18.990;2024-03-17T08:44:46;43.09;34.69;61.75;;
77134;Laerm;25175;50.140;18.990;2024-03-17T08:48:22;42.21;34.18;63.07;;
77134;Laerm;25175;50.140;18.990;2024-03-17T08:52:31;43.29;34.97;62.84;;
77134;Laerm;25175;50.140;18.990;2024-03-17T08:55:50;43.81;35.09;55.63;;
77134;Laerm;25175;50.140;18.990;2024-03-17T08:59:05;47.02;36.76;61.06;;
77134;Laerm;25175;50.140;18.990;2024-03-17T09:02:16;44.30;35.67;60.17;;
77134;Laerm;25175;50.140;18.990;2024-03-17T09:05:24;43.44;35.10;60.06;;
77134;Laerm;25175;50.140;18.990;2024-03-17T09:09:01;43.88;34.36;60.72;;
77134;Laerm;25175;50.140;18.990;2024-03-17T09:12:13;41.82;34.47;59.94;;
77134;Laerm;25175;50.140;18.990;2024-03-17T09:16:20;45.76;35.38;62.02;;
77134;Laerm;25175;50.140;18.990;2024-03-17T09:20:24;44.45;34.80;59.99;;
77134;Laerm;25175;50.140;18.990;2024-03-17T09:23:36;42.11;35.54;53.68;;
77134;Laerm;25175;50.140;18.990;2024-03-17T09:27:29;42.70;35.18;56.81;;
77134;Laerm;25175;50.140;18.990;2024-03-17T09:30:46;41.55;34.47;58.91;;
77134;Laerm;25175;50.140;18.990;2024-03-17T09:34:19;42.51;34.60;56.72;;
77134;Laerm;25175;50.140;18.990;2024-03-17T09:37:29;43.77;35.13;61.30;;
77134;Laerm;25175;50.140;18.990;2024-03-17T09:40:35;41.13;34.53;54.43;;
77134;Laerm;25175;50.140;18.990;2024-03-17T09:43:46;44.04;36.39;57.37;;
77134;Laerm;25175;50.140;18.990;2024-03-17T09:46:55;44.61;34.74;57.38;;
77134;Laerm;25175;50.140;18.990;2024-03-17T09:53:49;48.86;35.19;64.76;;
77134;Laerm;25175;50.140;18.990;2024-03-17T09:57:17;43.39;35.37;56.45;;
77134;Laerm;25175;50.140;18.990;2024-03-17T10:01:45;46.55;35.46;59.84;;
77134;Laerm;25175;50.140;18.990;2024-03-17T10:05:29;47.67;34.73;69.73;;
77134;Laerm;25175;50.140;18.990;2024-03-17T10:12:42;42.89;34.21;56.02;;
77134;Laerm;25175;50.140;18.990;2024-03-17T10:15:51;42.72;34.09;57.43;;
77134;Laerm;25175;50.140;18.990;2024-03-17T10:19:28;44.39;34.35;58.36;;
77134;Laerm;25175;50.140;18.990;2024-03-17T10:22:34;44.58;34.47;59.22;;
77134;Laerm;25175;50.140;18.990;2024-03-17T10:26:16;44.37;34.65;60.99;;
77134;Laerm;25175;50.140;18.990;2024-03-17T10:29:35;45.14;34.40;57.34;;
77134;Laerm;25175;50.140;18.990;2024-03-17T10:32:48;48.76;34.69;62.01;;
77134;Laerm;25175;50.140;18.990;2024-03-17T10:36:25;43.89;33.96;57.64;;
77134;Laerm;25175;50.140;18.990;2024-03-17T10:39:54;45.55;34.72;57.03;;
77134;Laerm;25175;50.140;18.990;2024-03-17T10:43:13;44.37;34.01;55.75;;
77134;Laerm;25175;50.140;18.990;2024-03-17T10:46:29;44.35;34.01;55.65;;
77134;Laerm;25175;50.140;18.990;2024-03-17T10:49:56;46.75;35.74;58.83;;
77134;Laerm;25175;50.140;18.990;2024-03-17T10:53:13;44.49;33.79;59.27;;
77134;Laerm;25175;50.140;18.990;2024-03-17T10:56:31;44.07;35.54;58.21;;
77134;Laerm;25175;50.140;18.990;2024-03-17T10:59:48;46.36;35.05;59.01;;
77134;Laerm;25175;50.140;18.990;2024-03-17T11:04:19;47.04;35.02;62.56;;
77134;Laerm;25175;50.140;18.990;2024-03-17T11:07:52;44.85;34.50;63.23;;
77134;Laerm;25175;50.140;18.990;2024-03-17T11:11:11;44.04;33.54;62.71;;
77134;Laerm;25175;50.140;18.990;2024-03-17T11:14:57;47.16;34.94;70.88;;
77134;Laerm;25175;50.140;18.990;2024-03-17T11:18:37;43.92;34.32;69.04;;
77134;Laerm;25175;50.140;18.990;2024-03-17T11:21:45;42.42;34.99;56.30;;
77134;Laerm;25175;50.140;18.990;2024-03-17T11:24:51;46.38;36.18;70.86;;
77134;Laerm;25175;50.140;18.990;2024-03-17T11:28:50;55.30;34.35;79.05;;
77134;Laerm;25175;50.140;18.990;2024-03-17T11:32:41;42.61;34.18;61.12;;
77134;Laerm;25175;50.140;18.990;2024-03-17T11:49:07;45.10;34.12;62.92;;
77134;Laerm;25175;50.140;18.990;2024-03-17T11:52:16;43.83;33.95;56.78;;
77134;Laerm;25175;50.140;18.990;2024-03-17T11:55:49;42.66;33.63;56.14;;
77134;Laerm;25175;50.140;18.990;2024-03-17T11:59:06;47.35;34.14;65.58;;
77134;Laerm;25175;50.140;18.990;2024-03-17T12:02:40;47.39;35.90;65.83;;
77134;Laerm;25175;50.140;18.990;2024-03-17T12:05:50;44.19;33.94;57.73;;
77134;Laerm;25175;50.140;18.990;2024-03-17T12:09:20;40.42;34.15;56.53;;
77134;Laerm;25175;50.140;18.990;2024-03-17T12:12:41;46.17;35.91;61.38;;
77134;Laerm;25175;50.140;18.990;2024-03-17T12:15:47;44.61;34.01;55.78;;
77134;Laerm;25175;50.140;18.990;2024-03-17T12:18:50;46.99;36.01;58.87;;
77134;Laerm;25175;50.140;18.990;2024-03-17T12:22:24;46.69;36.35;58.49;;
77134;Laerm;25175;50.140;18.990;2024-03-17T12:29:34;44.07;34.14;57.70;;
77134;Laerm;25175;50.140;18.990;2024-03-17T12:32:56;44.22;34.04;58.08;;
77134;Laerm;25175;50.140;18.990;2024-03-17T12:36:06;44.53;34.38;62.19;;
77134;Laerm;25175;50.140;18.990;2024-03-17T12:39:24;42.44;33.80;60.19;;
77134;Laerm;25175;50.140;18.990;2024-03-17T12:46:46;43.97;34.26;58.08;;
77134;Laerm;25175;50.140;18.990;2024-03-17T12:49:54;40.53;33.86;57.25;;
77134;Laerm;25175;50.140;18.990;2024-03-17T12:53:07;44.83;33.76;61.90;;
77134;Laerm;25175;50.140;18.990;2024-03-17T12:57:28;41.39;33.55;60.08;;
77134;Laerm;25175;50.140;18.990;2024-03-17T13:00:47;43.05;34.26;57.69;;
77134;Laerm;25175;50.140;18.990;2024-03-17T13:04:06;47.04;34.37;66.85;;
77134;Laerm;25175;50.140;18.990;2024-03-17T13:07:28;43.13;33.64;57.83;;
77134;Laerm;25175;50.140;18.990;2024-03-17T13:10:33;42.30;35.11;53.27;;
77134;Laerm;25175;50.140;18.990;2024-03-17T13:13:48;41.83;33.30;56.13;;
77134;Laerm;25175;50.140;18.990;2024-03-17T13:16:56;46.16;33.87;65.42;;
77134;Laerm;25175;50.140;18.990;2024-03-17T13:20:07;42.99;35.11;55.45;;
77134;Laerm;25175;50.140;18.990;2024-03-17T13:23:37;43.86;34.35;55.98;;
77134;Laerm;25175;50.140;18.990;2024-03-17T13:31:17;53.98;34.29;76.51;;
77134;Laerm;25175;50.140;18.990;2024-03-17T13:34:29;43.67;36.12;57.03;;
77134;Laerm;25175;50.140;18.990;2024-03-17T13:37:37;48.01;34.46;67.50;;
77134;Laerm;25175;50.140;18.990;2024-03-17T13:40:50;48.20;34.81;67.61;;
77134;Laerm;25175;50.140;18.990;2024-03-17T13:44:00;46.42;35.20;68.88;;
77134;Laerm;25175;50.140;18.990;2024-03-17T13:51:40;43.34;33.38;53.94;;
77134;Laerm;25175;50.140;18.990;2024-03-17T13:54:56;45.34;33.83;73.35;;
77134;Laerm;25175;50.140;18.990;2024-03-17T13:58:12;43.39;34.79;55.17;;
77134;Laerm;25175;50.140;18.990;2024-03-17T14:01:21;47.05;36.53;60.13;;
77134;Laerm;25175;50.140;18.990;2024-03-17T14:04:56;44.54;34.71;58.39;;
77134;Laerm;25175;50.140;18.990;2024-03-17T14:08:17;44.86;34.17;62.49;;
77134;Laerm;25175;50.140;18.990;2024-03-17T14:11:28;41.69;33.94;64.85;;
77134;Laerm;25175;50.140;18.990;2024-03-17T14:14:39;45.49;34.91;60.02;;
77134;Laerm;25175;50.140;18.990;2024-03-17T14:18:04;44.80;35.10;59.02;;
77134;Laerm;25175;50.140;18.990;2024-03-17T14:21:16;42.62;34.66;55.14;;
77134;Laerm;25175;50.140;18.990;2024-03-17T14:24:28;44.86;34.59;56.07;;
77134;Laerm;25175;50.140;18.990;2024-03-17T14:27:37;45.78;34.47;62.82;;
77134;Laerm;25175;50.140;18.990;2024-03-17T14:30:44;37.98;33.53;55.46;;
77134;Laerm;25175;50.140;18.990;2024-03-17T14:33:52;45.25;35.02;71.19;;
77134;Laerm;25175;50.140;18.990;2024-03-17T14:36:59;44.31;34.39;58.49;;
77134;Laerm;25175;50.140;18.990;2024-03-17T14:40:09;44.36;35.65;72.81;;
77134;Laerm;25175;50.140;18.990;2024-03-17T14:43:24;45.90;35.90;77.37;;
77134;Laerm;25175;50.140;18.990;2024-03-17T14:50:51;42.68;34.75;65.47;;
77134;Laerm;25175;50.140;18.990;2024-03-17T14:54:04;41.90;34.49;58.92;;
77134;Laerm;25175;50.140;18.990;2024-03-17T14:57:15;44.32;35.25;60.41;;
77134;Laerm;25175;50.140;18.990;2024-03-17T15:00:23;43.93;34.55;56.43;;
77134;Laerm;25175;50.140;18.990;2024-03-17T15:03:30;45.67;34.20;61.98;;
77134;Laerm;25175;50.140;18.990;2024-03-17T15:09:52;44.60;35.16;66.45;;
77134;Laerm;25175;50.140;18.990;2024-03-17T15:13:00;45.86;35.30;62.60;;
77134;Laerm;25175;50.140;18.990;2024-03-17T15:20:26;47.78;35.45;61.03;;
77134;Laerm;25175;50.140;18.990;2024-03-17T15:23:34;43.27;34.78;62.51;;
77134;Laerm;25175;50.140;18.990;2024-03-17T15:26:42;42.24;35.29;55.90;;
77134;Laerm;25175;50.140;18.990;2024-03-17T15:29:54;48.46;35.17;75.46;;
77134;Laerm;25175;50.140;18.990;2024-03-17T15:32:59;53.03;35.17;74.65;;
77134;Laerm;25175;50.140;18.990;2024-03-17T15:36:09;44.34;34.61;61.46;;
77134;Laerm;25175;50.140;18.990;2024-03-17T15:39:56;45.69;36.09;58.01;;
77134;Laerm;25175;50.140;18.990;2024-03-17T15:43:03;47.82;35.06;60.80;;
77134;Laerm;25175;50.140;18.990;2024-03-17T15:46:16;41.88;33.81;59.63;;
77134;Laerm;25175;50.140;18.990;2024-03-17T15:49:28;46.13;35.87;65.93;;
77134;Laerm;25175;50.140;18.990;2024-03-17T15:52:35;44.57;33.82;55.56;;
77134;Laerm;25175;50.140;18.990;2024-03-17T15:55:53;44.80;34.45;54.63;;
77134;Laerm;25175;50.140;18.990;2024-03-17T15:59:01;44.46;34.47;57.42;;
77134;Laerm;25175;50.140;18.990;2024-03-17T16:02:13;45.44;36.71;58.96;;
77134;Laerm;25175;50.140;18.990;2024-03-17T16:05:22;44.70;34.44;57.86;;
77134;Laerm;25175;50.140;18.990;2024-03-17T16:08:29;40.87;34.26;54.49;;
77134;Laerm;25175;50.140;18.990;2024-03-17T16:11:47;46.99;34.14;67.57;;
77134;Laerm;25175;50.140;18.990;2024-03-17T16:14:54;42.46;34.88;55.29;;
77134;Laerm;25175;50.140;18.990;2024-03-17T16:18:06;42.52;35.53;56.95;;
77134;Laerm;25175;50.140;18.990;2024-03-17T16:21:16;44.05;34.26;56.75;;
77134;Laerm;25175;50.140;18.990;2024-03-17T16:27:44;45.12;34.28;60.01;;
77134;Laerm;25175;50.140;18.990;2024-03-17T16:31:21;42.78;33.45;58.21;;
77134;Laerm;25175;50.140;18.990;2024-03-17T16:34:54;42.94;33.99;56.91;;
77134;Laerm;25175;50.140;18.990;2024-03-17T16:38:24;39.77;33.77;55.38;;
77134;Laerm;25175;50.140;18.990;2024-03-17T16:41:37;47.02;34.35;62.24;;
77134;Laerm;25175;50.140;18.990;2024-03-17T16:44:54;41.33;33.49;55.20;;
77134;Laerm;25175;50.140;18.990;2024-03-17T16:48:03;53.15;34.75;76.84;;
77134;Laerm;25175;50.140;18.990;2024-03-17T16:55:09;42.54;33.54;59.39;;
77134;Laerm;25175;50.140;18.990;2024-03-17T16:58:34;50.54;33.87;71.80;;
77134;Laerm;25175;50.140;18.990;2024-03-17T17:01:54;47.56;34.02;74.21;;
77134;Laerm;25175;50.140;18.990;2024-03-17T17:05:17;42.47;34.26;53.00;;
77134;Laerm;25175;50.140;18.990;2024-03-17T17:13:13;43.89;33.90;60.59;;
77134;Laerm;25175;50.140;18.990;2024-03-17T17:16:20;45.94;35.56;57.17;;
77134;Laerm;25175;50.140;18.990;2024-03-17T17:20:08;43.24;33.60;59.71;;
77134;Laerm;25175;50.140;18.990;2024-03-17T17:23:15;40.15;34.86;52.51;;
77134;Laerm;25175;50.140;18.990;2024-03-17T17:26:58;41.19;33.77;52.78;;
77134;Laerm;25175;50.140;18.990;2024-03-17T17:30:09;41.94;33.73;59.36;;
77134;Laerm;25175;50.140;18.990;2024-03-17T17:33:30;41.14;33.89;55.12;;
77134;Laerm;25175;50.140;18.990;2024-03-17T17:36:50;41.88;33.98;55.25;;
77134;Laerm;25175;50.140;18.990;2024-03-17T17:39:56;47.33;34.50;67.36;;
77134;Laerm;25175;50.140;18.990;2024-03-17T17:43:02;41.63;34.57;55.08;;
77134;Laerm;25175;50.140;18.990;2024-03-17T17:46:23;42.69;34.36;56.86;;
77134;Laerm;25175;50.140;18.990;2024-03-17T17:49:49;43.67;33.72;57.35;;
77134;Laerm;25175;50.140;18.990;2024-03-17T17:53:52;44.24;34.62;58.73;;
77134;Laerm;25175;50.140;18.990;2024-03-17T17:57:02;45.59;35.17;60.09;;
77134;Laerm;25175;50.140;18.990;2024-03-17T18:00:37;42.89;33.54;57.35;;
77134;Laerm;25175;50.140;18.990;2024-03-17T18:04:35;44.14;34.18;63.11;;
77134;Laerm;25175;50.140;18.990;2024-03-17T18:07:41;42.96;34.05;58.46;;
77134;Laerm;25175;50.140;18.990;2024-03-17T18:10:54;44.94;34.71;58.61;;
77134;Laerm;25175;50.140;18.990;2024-03-17T18:14:28;41.16;33.81;55.31;;
77134;Laerm;25175;50.140;18.990;2024-03-17T18:17:35;40.15;33.74;56.29;;
77134;Laerm;25175;50.140;18.990;2024-03-17T18:20:55;42.04;33.35;59.57;;
77134;Laerm;25175;50.140;18.990;2024-03-17T18:24:05;40.69;33.66;57.08;;
77134;Laerm;25175;50.140;18.990;2024-03-17T18:31:00;44.56;34.30;59.49;;
77134;Laerm;25175;50.140;18.990;2024-03-17T18:34:31;42.20;33.71;56.39;;
77134;Laerm;25175;50.140;18.990;2024-03-17T18:37:48;44.70;33.13;58.25;;
77134;Laerm;25175;50.140;18.990;2024-03-17T18:40:58;39.53;33.30;57.37;;
77134;Laerm;25175;50.140;18.990;2024-03-17T18:45:14;42.84;32.88;56.90;;
77134;Laerm;25175;50.140;18.990;2024-03-17T18:48:44;46.69;35.47;58.22;;
77134;Laerm;25175;50.140;18.990;2024-03-17T18:51:51;45.01;33.98;60.71;;
77134;Laerm;25175;50.140;18.990;2024-03-17T18:55:05;40.56;33.12;54.92;;
77134;Laerm;25175;50.140;18.990;2024-03-17T18:58:17;40.57;33.18;56.44;;
77134;Laerm;25175;50.140;18.990;2024-03-17T19:01:28;37.22;33.17;55.31;;
77134;Laerm;25175;50.140;18.990;2024-03-17T19:04:34;41.10;33.59;59.72;;
77134;Laerm;25175;50.140;18.990;2024-03-17T19:07:46;41.07;33.16;66.27;;
77134;Laerm;25175;50.140;18.990;2024-03-17T19:11:22;44.11;33.44;62.41;;
77134;Laerm;25175;50.140;18.990;2024-03-17T19:14:44;41.23;33.13;51.82;;
77134;Laerm;25175;50.140;18.990;2024-03-17T19:17:53;39.90;33.34;55.20;;
77134;Laerm;25175;50.140;18.990;2024-03-17T19:21:55;40.39;33.28;55.22;;
77134;Laerm;25175;50.140;18.990;2024-03-17T19:25:32;36.36;33.32;47.70;;
77134;Laerm;25175;50.140;18.990;2024-03-17T19:28:40;42.43;33.19;58.62;;
77134;Laerm;25175;50.140;18.990;2024-03-17T19:31:52;42.24;33.08;54.71;;
77134;Laerm;25175;50.140;18.990;2024-03-17T19:35:37;41.66;33.12;59.43;;
77134;Laerm;25175;50.140;18.990;2024-03-17T19:38:44;42.44;32.88;58.40;;
77134;Laerm;25175;50.140;18.990;2024-03-17T19:41:57;38.09;33.16;53.76;;
77134;Laerm;25175;50.140;18.990;2024-03-17T19:46:19;44.27;33.06;56.07;;
77134;Laerm;25175;50.140;18.990;2024-03-17T19:49:25;45.31;33.69;58.36;;
77134;Laerm;25175;50.140;18.990;2024-03-17T19:56:31;41.94;33.74;55.66;;
77134;Laerm;25175;50.140;18.990;2024-03-17T19:59:38;42.14;33.50;56.95;;
77134;Laerm;25175;50.140;18.990;2024-03-17T20:02:54;44.41;32.87;58.05;;
77134;Laerm;25175;50.140;18.990;2024-03-17T20:06:03;38.05;32.94;53.57;;
77134;Laerm;25175;50.140;18.990;2024-03-17T20:09:18;38.96;33.02;54.79;;
77134;Laerm;25175;50.140;18.990;2024-03-17T20:12:25;36.30;32.93;52.05;;
77134;Laerm;25175;50.140;18.990;2024-03-17T20:19:48;39.07;32.99;56.49;;
77134;Laerm;25175;50.140;18.990;2024-03-17T20:24:15;40.85;33.22;55.46;;
77134;Laerm;25175;50.140;18.990;2024-03-17T20:28:09;39.32;32.69;56.10;;
77134;Laerm;25175;50.140;18.990;2024-03-17T20:31:22;39.24;32.80;59.76;;
77134;Laerm;25175;50.140;18.990;2024-03-17T20:34:30;37.49;33.10;51.33;;
77134;Laerm;25175;50.140;18.990;2024-03-17T20:38:19;41.45;33.30;55.97;;
77134;Laerm;25175;50.140;18.990;2024-03-17T20:41:44;42.17;33.22;54.77;;
77134;Laerm;25175;50.140;18.990;2024-03-17T20:45:04;38.91;33.17;53.28;;
77134;Laerm;25175;50.140;18.990;2024-03-17T20:48:46;34.49;32.56;41.08;;
77134;Laerm;25175;50.140;18.990;2024-03-17T20:52:11;35.23;32.85;46.08;;
77134;Laerm;25175;50.140;18.990;2024-03-17T20:55:33;39.80;32.89;57.15;;
77134;Laerm;25175;50.140;18.990;2024-03-17T20:58:39;39.62;32.95;53.82;;
77134;Laerm;25175;50.140;18.990;2024-03-17T21:01:49;40.61;33.46;54.70;;
77134;Laerm;25175;50.140;18.990;2024-03-17T21:09:13;34.71;32.63;41.66;;
77134;Laerm;25175;50.140;18.990;2024-03-17T21:13:08;34.92;32.70;55.28;;
77134;Laerm;25175;50.140;18.990;2024-03-17T21:16:35;38.73;32.65;55.51;;
77134;Laerm;25175;50.140;18.990;2024-03-17T21:20:11;36.50;33.14;49.38;;
77134;Laerm;25175;50.140;18.990;2024-03-17T21:26:55;35.94;32.81;48.24;;
77134;Laerm;25175;50.140;18.990;2024-03-17T21:30:08;34.91;33.06;42.82;;
77134;Laerm;25175;50.140;18.990;2024-03-17T21:33:25;37.35;33.14;51.39;;
77134;Laerm;25175;50.140;18.990;2024-03-17T21:36:36;34.65;32.79;43.53;;
77134;Laerm;25175;50.140;18.990;2024-03-17T21:40:00;34.17;32.39;46.38;;
77134;Laerm;25175;50.140;18.990;2024-03-17T21:43:33;36.13;32.46;49.69;;
77134;Laerm;25175;50.140;18.990;2024-03-17T21:50:19;33.70;32.35;37.65;;
77134;Laerm;25175;50.140;18.990;2024-03-17T21:53:40;39.35;32.51;55.18;;
77134;Laerm;25175;50.140;18.990;2024-03-17T21:56:46;39.22;32.62;54.33;;
77134;Laerm;25175;50.140;18.990;2024-03-17T22:00:10;35.74;32.59;59.76;;
77134;Laerm;25175;50.140;18.990;2024-03-17T22:03:19;34.00;32.53;40.33;;
77134;Laerm;25175;50.140;18.990;2024-03-17T22:06:28;39.19;32.58;59.16;;
77134;Laerm;25175;50.140;18.990;2024-03-17T22:09:35;35.97;32.46;55.97;;
77134;Laerm;25175;50.140;18.990;2024-03-17T22:12:45;34.29;32.54;50.48;;